createdAt,value
2022-12-23T00:06:14.130Z,5.2
2022-12-23T00:20:14.189Z,5.1
2022-12-23T00:34:14.138Z,5.2
2022-12-23T00:48:14.228Z,5.2
2022-12-23T01:02:14.265Z,5.2
2022-12-23T01:16:17.505Z,5.2
2022-12-23T01:30:14.141Z,5.2
2022-12-23T01:44:14.194Z,5.1
2022-12-23T01:58:14.195Z,5.0
2022-12-23T02:12:14.158Z,5.2
2022-12-23T02:26:14.162Z,5.2
2022-12-23T02:40:14.172Z,5.4
2022-12-23T02:54:14.181Z,5.6
2022-12-23T03:08:14.193Z,5.5
2022-12-23T03:22:14.189Z,5.4
2022-12-23T03:36:14.177Z,5.4
2022-12-23T03:50:14.186Z,5.4
2022-12-23T04:04:14.269Z,5.3
2022-12-23T04:18:14.207Z,5.3
2022-12-23T04:32:14.185Z,5.3
2022-12-23T04:46:14.220Z,5.4
2022-12-23T05:00:14.201Z,5.2
2022-12-23T05:14:14.196Z,5.2
2022-12-23T05:28:14.198Z,5.3
2022-12-23T05:42:14.186Z,5.3
2022-12-23T05:56:14.207Z,5.4
2022-12-23T06:10:14.321Z,5.4
2022-12-23T06:24:14.319Z,5.5
2022-12-23T06:38:14.344Z,5.4
2022-12-23T06:53:14.333Z,5.6
2022-12-23T07:08:14.428Z,5.6
2022-12-23T07:23:14.413Z,5.7
2022-12-23T07:38:14.454Z,5.8
2022-12-23T07:53:14.482Z,6.0
2022-12-23T08:08:14.465Z,6.6
2022-12-23T08:23:16.574Z,6.7
2022-12-23T08:38:14.492Z,6.8
2022-12-23T08:53:14.495Z,6.7
2022-12-23T09:08:14.517Z,7.6
2022-12-23T09:23:14.543Z,9.0
2022-12-23T09:38:14.546Z,8.8
2022-12-23T09:53:14.613Z,9.8
2022-12-23T10:08:14.649Z,9.1
2022-12-23T10:23:14.653Z,9.5
2022-12-23T10:38:14.649Z,9.8
2022-12-23T10:53:14.671Z,10.1
2022-12-23T11:08:14.707Z,10.3
2022-12-23T11:23:14.721Z,10.6
2022-12-23T11:38:14.717Z,10.8
2022-12-23T11:53:14.750Z,10.7
2022-12-23T12:08:14.738Z,10.7
2022-12-23T12:23:14.740Z,10.9
2022-12-23T12:38:14.844Z,11.0
2022-12-23T12:53:14.902Z,11.6
2022-12-23T13:08:14.910Z,11.4
2022-12-23T13:23:41.451Z,11.4
2022-12-23T13:38:14.963Z,10.6
2022-12-23T13:53:14.933Z,10.7
2022-12-23T14:08:14.949Z,10.8
2022-12-23T14:23:14.961Z,10.3
2022-12-23T14:38:15.008Z,9.6
2022-12-23T14:53:14.964Z,9.2
2022-12-23T15:09:14.964Z,9.1
2022-12-23T15:24:15.020Z,8.9
2022-12-23T15:39:15.026Z,8.4
2022-12-23T15:54:15.067Z,7.3
2022-12-23T16:09:15.081Z,6.8
2022-12-23T16:23:15.132Z,6.7
2022-12-23T16:37:15.099Z,6.8
2022-12-23T16:51:15.261Z,6.8
2022-12-23T17:05:15.148Z,6.5
2022-12-23T17:19:19.225Z,6.6
2022-12-23T17:33:15.206Z,6.7
2022-12-23T17:47:15.178Z,6.8
2022-12-23T18:01:15.223Z,6.6
2022-12-23T18:15:15.233Z,6.5
2022-12-23T18:29:15.244Z,5.9
2022-12-23T18:43:15.255Z,5.7
2022-12-23T18:57:15.357Z,5.3
2022-12-23T19:11:15.294Z,5.3
2022-12-23T19:25:15.302Z,5.3
2022-12-23T19:39:15.288Z,5.3
2022-12-23T19:53:15.290Z,5.4
2022-12-23T20:07:15.345Z,5.6
2022-12-23T20:21:15.367Z,6.4
2022-12-23T20:35:15.360Z,6.2
2022-12-23T20:49:15.379Z,6.0
2022-12-23T21:03:15.415Z,5.7
2022-12-23T21:17:15.405Z,5.7
2022-12-23T21:31:15.457Z,5.7
2022-12-23T21:45:15.423Z,5.8
2022-12-23T21:59:15.460Z,5.8
2022-12-23T22:13:15.486Z,6.1
2022-12-23T22:27:15.518Z,6.0
2022-12-23T22:41:15.488Z,6.0
2022-12-23T22:55:15.487Z,6.0
2022-12-23T23:09:15.540Z,6.0
2022-12-23T23:23:15.524Z,6.1
2022-12-23T23:37:15.538Z,6.1
2022-12-23T23:51:15.593Z,6.2
